Time;durP1;ratioP1;P1;durP2;ratioP2;P2;SDS_P1;SDS_P2;PMS_P1;PMS_P2;Temp;Humidity;BMP_temperature;BMP_pressure;BME280_temperature;BME280_humidity;BME280_pressure;Samples;Min_cycle;Max_cycle;Signal;HPM_P1;HPM_P2
2021/03/27 00:02:16;;;;;;;2.33;2.20;;;;;;;10.26;59.39;100030.81;5070710;28;20178;-72
2021/03/27 00:05:01;;;;;;;2.43;1.87;;;;;;;9.84;60.73;100023.03;5052927;28;20961;-72
2021/03/27 00:07:31;;;;;;;1.73;1.53;;;;;;;9.98;60.59;100028.38;5070715;28;20633;-71
2021/03/27 00:10:18;;;;;;;1.70;1.60;;;;;;;10.05;60.18;100016.97;5070847;28;20178;-72
2021/03/27 00:12:50;;;;;;;2.00;1.80;;;;;;;10.06;59.96;100013.91;5070806;28;20228;-72
2021/03/27 00:15:54;;;;;;;2.53;2.33;;;;;;;10.18;59.61;100015.22;5071186;28;20167;-72
2021/03/27 00:18:56;;;;;;;2.20;2.00;;;;;;;10.23;59.54;100015.09;5070466;28;20184;-72
2021/03/27 00:21:44;;;;;;;2.00;1.90;;;;;;;10.28;59.64;100006.78;5057435;28;20194;-72
2021/03/27 00:24:16;;;;;;;1.73;1.63;;;;;;;10.26;59.13;100007.06;5070945;28;20158;-72
2021/03/27 00:27:05;;;;;;;1.90;1.80;;;;;;;10.28;59.29;100004.84;5069793;28;20593;-72
2021/03/27 00:30:01;;;;;;;2.20;2.00;;;;;;;10.19;59.67;99997.72;5070657;28;20537;-71
2021/03/27 00:32:34;;;;;;;2.03;1.93;;;;;;;10.27;59.07;99995.03;5069905;28;20528;-72
2021/03/27 00:35:05;;;;;;;1.90;1.33;;;;;;;10.37;58.70;100002.91;5073748;28;20174;-71
2021/03/27 00:37:32;;;;;;;1.93;1.73;;;;;;;10.34;58.67;100005.47;5071067;28;20174;-71
2021/03/27 00:40:14;;;;;;;1.97;1.73;;;;;;;10.31;58.27;99995.19;5070482;28;20198;-71
2021/03/27 00:42:43;;;;;;;1.30;1.20;;;;;;;10.37;58.37;99994.72;5070171;28;20171;-71
2021/03/27 00:45:14;;;;;;;1.80;1.70;;;;;;;10.40;57.84;99993.25;5070534;28;20653;-71
2021/03/27 00:47:43;;;;;;;2.10;1.80;;;;;;;10.38;57.92;99987.31;5070046;28;20301;-71
2021/03/27 00:50:12;;;;;;;2.33;2.10;;;;;;;10.37;58.14;99983.78;5070318;28;20185;-72
2021/03/27 00:52:44;;;;;;;1.83;1.70;;;;;;;10.35;58.22;99969.66;5070341;28;20174;-71
2021/03/27 00:55:17;;;;;;;2.10;1.77;;;;;;;10.33;57.78;99974.63;5070309;28;20167;-71
2021/03/27 00:57:58;;;;;;;4.57;1.20;;;;;;;10.33;57.57;99966.44;5052030;28;20170;-71
2021/03/27 01:00:26;;;;;;;1.73;1.60;;;;;;;10.33;57.87;99974.63;5070442;28;20173;-72
2021/03/27 01:02:58;;;;;;;1.40;1.30;;;;;;;10.38;57.49;99963.53;5069944;28;20171;-71
2021/03/27 01:05:28;;;;;;;1.77;1.33;;;;;;;10.39;57.70;99967.06;5070279;28;20159;-71
2021/03/27 01:07:56;;;;;;;1.70;1.37;;;;;;;10.29;57.94;99964.69;5069864;28;20216;-71
2021/03/27 01:10:25;;;;;;;1.37;1.27;;;;;;;10.33;57.86;99960.19;5070093;28;20175;-71
2021/03/27 01:12:53;;;;;;;1.97;1.73;;;;;;;10.40;57.54;99955.81;5070121;28;20177;-71
2021/03/27 01:15:24;;;;;;;1.30;1.20;;;;;;;10.35;57.47;99936.88;5070470;28;20175;-72
2021/03/27 01:17:53;;;;;;;1.13;1.00;;;;;;;10.35;57.45;99936.09;5069588;28;20205;-71
2021/03/27 01:20:26;;;;;;;1.70;1.60;;;;;;;10.38;57.51;99938.16;5069794;28;20502;-71
2021/03/27 01:22:53;;;;;;;1.40;1.30;;;;;;;10.34;57.15;99934.47;5069704;28;20182;-72
2021/03/27 01:25:27;;;;;;;1.73;1.60;;;;;;;10.35;57.45;99936.09;5069888;28;20228;-71
2021/03/27 01:28:02;;;;;;;1.60;1.43;;;;;;;10.20;58.06;99929.16;5069191;28;20178;-71
2021/03/27 01:30:37;;;;;;;1.63;1.33;;;;;;;10.00;59.23;99929.78;5069692;28;20182;-71
2021/03/27 01:33:11;;;;;;;1.73;1.50;;;;;;;10.02;59.21;99922.88;5069896;28;20261;-71
2021/03/27 01:36:05;;;;;;;1.70;1.60;;;;;;;9.89;59.63;99918.38;5069876;28;20190;-71
2021/03/27 01:38:39;;;;;;;1.80;1.70;;;;;;;9.75;60.56;99912.28;5069767;28;20195;-71
2021/03/27 01:41:50;;;;;;;2.17;1.30;;;;;;;9.72;60.63;99915.63;5053435;28;20530;-71
2021/03/27 01:44:53;;;;;;;1.53;1.40;;;;;;;9.62;61.15;99900.38;5073255;28;20177;-72
2021/03/27 01:47:35;;;;;;;1.30;1.20;;;;;;;9.77;61.12;99904.56;5051386;28;20186;-72
2021/03/27 01:50:08;;;;;;;2.10;1.70;;;;;;;9.71;60.72;99897.66;5066736;28;20232;-72
2021/03/27 01:52:51;;;;;;;1.43;1.33;;;;;;;9.59;61.61;99889.31;5053104;28;20202;-72
2021/03/27 01:55:48;;;;;;;1.50;1.40;;;;;;;9.59;61.66;99897.47;5035620;28;20602;-71
2021/03/27 01:58:25;;;;;;;2.00;1.90;;;;;;;9.60;61.91;99888.97;5052737;28;20274;-72
2021/03/27 02:00:56;;;;;;;1.83;1.73;;;;;;;9.62;61.70;99884.00;5052941;28;20159;-72
2021/03/27 02:03:36;;;;;;;1.90;1.80;;;;;;;9.44;61.41;99883.19;5052674;28;20181;-71
2021/03/27 02:06:09;;;;;;;1.97;1.77;;;;;;;9.36;62.50;99880.41;5053176;28;20164;-71
2021/03/27 02:08:56;;;;;;;3.17;2.60;;;;;;;9.19;62.78;99879.25;5052755;28;20205;-72
2021/03/27 02:11:53;;;;;;;2.27;2.17;;;;;;;9.12;62.99;99875.41;5052745;28;20179;-74
2021/03/27 02:14:28;;;;;;;2.20;2.00;;;;;;;8.72;64.93;99877.31;5052856;28;20195;-72
2021/03/27 02:16:59;;;;;;;1.73;1.63;;;;;;;8.70;64.56;99868.66;5052440;28;20175;-72
2021/03/27 02:19:58;;;;;;;2.10;2.00;;;;;;;8.43;65.51;99862.25;5052683;28;20203;-71
2021/03/27 02:22:23;;;;;;;2.40;2.17;;;;;;;8.49;65.96;99852.03;5052242;28;20206;-71
2021/03/27 02:25:12;;;;;;;2.17;1.97;;;;;;;8.45;66.59;99851.03;5052608;28;20171;-71
2021/03/27 02:27:49;;;;;;;1.83;1.67;;;;;;;8.46;67.16;99844.47;5052240;28;20167;-71
2021/03/27 02:30:18;;;;;;;2.67;2.47;;;;;;;8.49;65.94;99843.84;5052461;28;20197;-72
2021/03/27 02:33:08;;;;;;;2.30;1.83;;;;;;;8.30;66.52;99836.69;5052374;28;20183;-71
2021/03/27 02:35:54;;;;;;;1.90;1.80;;;;;;;8.28;67.01;99830.75;5052496;28;20172;-72
2021/03/27 02:38:29;;;;;;;2.07;1.97;;;;;;;8.44;66.84;99822.22;5051693;28;20203;-72
2021/03/27 02:41:37;;;;;;;1.60;1.50;;;;;;;8.67;65.32;99820.22;5052323;28;20179;-71
2021/03/27 02:44:26;;;;;;;1.23;1.13;;;;;;;8.95;63.49;99803.34;5013479;28;20644;-71
2021/03/27 02:46:59;;;;;;;1.30;1.10;;;;;;;9.14;62.92;99803.09;5052012;28;20174;-71
2021/03/27 02:49:24;;;;;;;1.67;1.57;;;;;;;9.42;62.50;99806.34;5052236;28;20186;-72
2021/03/27 02:52:03;;;;;;;1.37;1.00;;;;;;;9.57;62.07;99809.72;5050935;28;20171;-72
2021/03/27 02:54:38;;;;;;;1.47;1.30;;;;;;;9.95;60.44;99823.50;5051452;28;20230;-71
2021/03/27 02:57:32;;;;;;;1.13;1.03;;;;;;;10.15;60.23;99828.31;5050904;28;20197;-71
2021/03/27 03:00:07;;;;;;;1.27;0.97;;;;;;;10.39;59.52;99836.81;5045856;28;20227;-71
2021/03/27 03:03:09;;;;;;;0.63;0.63;;;;;;;10.52;59.93;99843.19;5051296;28;20187;-71
2021/03/27 03:05:47;;;;;;;0.83;0.80;;;;;;;10.60;60.65;99845.13;5033691;28;20583;-71
2021/03/27 03:08:48;;;;;;;0.90;0.70;;;;;;;10.62;59.54;99848.31;5050989;28;20183;-71
2021/03/27 03:11:28;;;;;;;1.33;1.03;;;;;;;10.60;60.71;99849.78;5042108;28;20206;-71
2021/03/27 03:14:31;;;;;;;1.07;0.97;;;;;;;10.63;60.40;99849.91;5051348;28;20186;-71
2021/03/27 03:17:00;;;;;;;0.53;0.53;;;;;;;10.69;60.52;99858.72;5050991;28;20249;-71
2021/03/27 03:19:42;;;;;;;1.07;0.97;;;;;;;10.37;63.09;99863.63;5051256;28;20191;-71
2021/03/27 03:22:22;;;;;;;0.73;0.70;;;;;;;10.23;63.11;99868.47;5051217;28;20270;-71
2021/03/27 03:24:52;;;;;;;0.80;0.80;;;;;;;10.10;64.46;99867.47;5051209;28;20183;-71
2021/03/27 03:27:37;;;;;;;1.07;0.97;;;;;;;9.98;66.48;99880.16;5050196;28;20539;-71
2021/03/27 03:30:20;;;;;;;1.07;1.07;;;;;;;9.80;68.33;99880.16;5050865;28;20700;-71
2021/03/27 03:33:06;;;;;;;0.37;0.30;;;;;;;9.54;71.54;99903.88;5051099;28;20175;-71
2021/03/27 03:35:39;;;;;;;0.73;0.73;;;;;;;9.35;73.01;99901.44;5051046;28;20175;-71
2021/03/27 03:38:41;;;;;;;0.67;0.67;;;;;;;9.09;74.75;99917.69;5032780;28;20206;-71
2021/03/27 03:41:29;;;;;;;0.67;0.67;;;;;;;9.02;75.17;99914.63;5050890;28;20179;-71
2021/03/27 03:44:00;;;;;;;0.63;0.37;;;;;;;8.96;76.30;99929.47;5050544;28;20182;-71
2021/03/27 03:46:39;;;;;;;27.37;0.93;;;;;;;8.86;75.93;99930.56;5050282;28;20171;-71
2021/03/27 03:49:26;;;;;;;0.70;0.70;;;;;;;8.72;74.71;99931.78;5050515;28;20217;-71
2021/03/27 03:52:09;;;;;;;0.30;0.30;;;;;;;8.59;75.36;99938.91;5049904;28;20402;-71
2021/03/27 03:55:03;;;;;;;0.40;0.40;;;;;;;8.48;75.97;99951.94;5032747;28;20179;-71
2021/03/27 03:57:28;;;;;;;10.27;1.10;;;;;;;8.38;77.21;99951.38;5031741;28;20557;-71
2021/03/27 04:00:01;;;;;;;0.70;0.37;;;;;;;8.30;77.67;99964.59;5050525;28;20236;-71
2021/03/27 04:02:32;;;;;;;0.40;0.30;;;;;;;8.23;79.06;99982.44;5050365;28;20178;-71
2021/03/27 04:05:03;;;;;;;0.80;0.80;;;;;;;7.98;79.04;99997.44;5050176;28;20229;-71
2021/03/27 04:07:35;;;;;;;0.10;0.10;;;;;;;7.58;78.03;100005.31;5050007;28;20631;-71
2021/03/27 04:10:13;;;;;;;0.30;0.30;;;;;;;7.27;77.87;100017.88;5050372;28;20233;-71
2021/03/27 04:12:47;;;;;;;0.20;0.20;;;;;;;6.99;79.25;100028.69;5050433;28;20178;-71
2021/03/27 04:15:20;;;;;;;0.40;0.40;;;;;;;6.76;81.03;100052.13;5050482;28;20178;-71
2021/03/27 04:18:11;;;;;;;0.47;0.47;;;;;;;6.53;82.86;100053.03;5049871;28;20649;-71
2021/03/27 04:20:52;;;;;;;0.00;0.00;;;;;;;6.27;84.29;100058.00;5050552;28;20513;-71
2021/03/27 04:23:31;;;;;;;0.07;0.07;;;;;;;6.14;84.26;100105.63;5050212;28;20590;-71
2021/03/27 04:26:15;;;;;;;0.53;0.53;;;;;;;5.99;85.28;100099.59;5049468;28;20182;-71
2021/03/27 04:28:40;;;;;;;0.00;0.00;;;;;;;5.89;85.65;100101.28;5050066;28;20187;-71
2021/03/27 04:31:18;;;;;;;0.10;0.10;;;;;;;5.78;86.22;100131.50;5032606;28;20178;-71
2021/03/27 04:34:05;;;;;;;0.50;0.30;;;;;;;5.63;86.98;100113.50;5050208;28;20178;-71
2021/03/27 04:37:11;;;;;;;0.10;0.10;;;;;;;5.44;88.07;100112.59;5031709;28;20592;-71
2021/03/27 04:39:42;;;;;;;0.60;0.60;;;;;;;5.34;88.34;100129.75;5044204;28;20249;-71
2021/03/27 04:42:18;;;;;;;0.53;0.53;;;;;;;5.27;89.10;100118.44;5050184;28;20223;-71
2021/03/27 04:45:05;;;;;;;0.10;0.10;;;;;;;5.18;89.53;100123.66;5031911;28;20178;-71
2021/03/27 04:47:37;;;;;;;0.10;0.10;;;;;;;5.15;91.03;100129.66;5049504;28;20187;-71
2021/03/27 04:50:21;;;;;;;0.10;0.10;;;;;;;5.13;91.07;100121.00;5050470;28;20187;-71
2021/03/27 04:53:05;;;;;;;0.20;0.20;;;;;;;5.11;91.47;100128.59;5032502;28;20569;-71
2021/03/27 04:55:44;;;;;;;0.20;0.13;;;;;;;5.09;91.55;100128.09;5050108;28;20171;-71
2021/03/27 04:58:36;;;;;;;0.10;0.10;;;;;;;5.10;91.49;100128.88;5049245;28;20229;-71
2021/03/27 05:01:14;;;;;;;0.30;0.30;;;;;;;5.10;91.82;100132.41;5050025;28;20239;-72
2021/03/27 05:04:14;;;;;;;0.57;0.43;;;;;;;5.11;92.17;100128.59;5049623;28;20206;-72
2021/03/27 05:06:42;;;;;;;0.00;0.00;;;;;;;5.11;92.28;100128.59;5049406;28;20584;-72
2021/03/27 05:09:27;;;;;;;0.60;0.20;;;;;;;5.15;92.65;100139.66;5049904;28;20191;-72
2021/03/27 05:12:00;;;;;;;0.70;0.47;;;;;;;5.13;92.86;100144.56;5049916;28;20171;-72
2021/03/27 05:14:44;;;;;;;0.67;0.67;;;;;;;5.17;92.36;100137.47;5049600;28;20176;-71
2021/03/27 05:17:22;;;;;;;0.30;0.20;;;;;;;5.20;91.67;100147.75;5052891;28;20194;-72
2021/03/27 05:19:59;;;;;;;0.10;0.10;;;;;;;5.24;91.23;100146.09;5053444;28;20203;-72
2021/03/27 05:22:55;;;;;;;0.23;0.23;;;;;;;5.19;91.06;100159.66;5053517;28;20182;-72
2021/03/27 05:25:26;;;;;;;0.17;0.17;;;;;;;5.18;90.84;100158.88;5053133;28;20244;-72
2021/03/27 05:28:08;;;;;;;0.10;0.10;;;;;;;5.19;89.93;100156.97;5052328;28;20213;-72
2021/03/27 05:30:39;;;;;;;0.20;0.20;;;;;;;5.21;90.11;100169.16;5053205;28;20230;-72
2021/03/27 05:33:29;;;;;;;0.10;0.10;;;;;;;5.22;89.29;100173.47;5053389;28;20622;-71
2021/03/27 05:36:04;;;;;;;1.23;1.20;;;;;;;5.21;89.38;100185.41;5053236;28;20271;-72
2021/03/27 05:38:55;;;;;;;0.30;0.30;;;;;;;5.19;89.15;100195.69;5053171;28;20276;-71
2021/03/27 05:41:50;;;;;;;1.20;0.20;;;;;;;5.19;88.72;100211.13;5053104;28;20589;-72
2021/03/27 05:44:43;;;;;;;0.07;0.07;;;;;;;5.19;88.85;100200.28;5052909;28;20241;-71
2021/03/27 05:47:23;;;;;;;0.30;0.30;;;;;;;5.16;89.20;100206.28;5052629;28;20186;-71
2021/03/27 05:50:28;;;;;;;0.47;0.47;;;;;;;5.16;89.07;100217.91;5053340;28;20175;-71
2021/03/27 05:53:24;;;;;;;0.20;0.20;;;;;;;5.15;89.48;100221.72;5053138;28;20189;-71
2021/03/27 05:56:20;;;;;;;0.23;0.23;;;;;;;5.15;89.86;100227.13;5052905;28;20179;-72
2021/03/27 05:59:00;;;;;;;0.80;0.47;;;;;;;5.17;89.95;100234.97;5052854;28;20223;-72
2021/03/27 06:01:42;;;;;;;0.20;0.20;;;;;;;5.18;89.93;100245.50;5052801;28;20175;-71
2021/03/27 06:04:52;;;;;;;0.40;0.40;;;;;;;5.22;90.33;100243.88;5052755;28;20187;-71
2021/03/27 06:07:50;;;;;;;0.23;0.23;;;;;;;5.23;89.15;100242.00;5050110;28;20266;-71
2021/03/27 06:10:36;;;;;;;0.73;0.73;;;;;;;5.27;88.46;100251.16;5032689;28;20545;-72
2021/03/27 06:13:35;;;;;;;0.30;0.30;;;;;;;5.28;89.13;100255.50;5052587;28;20180;-71
2021/03/27 06:16:32;;;;;;;0.20;0.20;;;;;;;5.27;88.28;100275.53;5052632;28;20706;-71
2021/03/27 06:19:16;;;;;;;0.20;0.20;;;;;;;5.29;87.91;100259.81;5052431;28;20640;-71
2021/03/27 06:22:28;;;;;;;1.23;1.20;;;;;;;5.30;86.08;100275.78;5052428;28;20171;-72
2021/03/27 06:25:34;;;;;;;0.13;0.13;;;;;;;5.31;86.83;100266.56;5009813;28;20196;-72
2021/03/27 06:28:30;;;;;;;1.13;0.83;;;;;;;5.33;84.88;100277.13;4979968;28;20255;-71
2021/03/27 06:31:11;;;;;;;1.07;1.07;;;;;;;5.37;84.94;100279.00;5049844;28;20203;-71
2021/03/27 06:34:09;;;;;;;0.83;0.60;;;;;;;5.43;84.26;100289.78;5034680;28;20579;-71
2021/03/27 06:36:53;;;;;;;0.63;0.47;;;;;;;5.44;83.64;100289.50;5051691;28;20214;-71
2021/03/27 06:39:43;;;;;;;1.53;1.23;;;;;;;5.47;84.79;100293.56;5051916;28;20206;-71
2021/03/27 06:42:17;;;;;;;0.73;0.67;;;;;;;5.49;82.93;100291.38;5052327;28;20184;-71
2021/03/27 06:44:54;;;;;;;0.70;0.70;;;;;;;5.50;83.24;100306.56;5034039;28;20183;-71
2021/03/27 06:47:31;;;;;;;4.73;2.93;;;;;;;5.50;82.49;100312.78;5051653;28;20179;-71
2021/03/27 06:50:07;;;;;;;1.33;1.23;;;;;;;5.43;83.59;100331.25;5052087;28;20182;-71
2021/03/27 06:52:56;;;;;;;1.90;1.17;;;;;;;5.37;nan;100344.00;5051898;28;20174;-72
2021/03/27 06:55:32;;;;;;;2.77;1.77;;;;;;;5.24;86.04;100347.34;5052410;28;20229;-71
2021/03/27 06:58:31;;;;;;;2.00;1.90;;;;;;;5.18;85.98;100353.84;5051510;28;20186;-71
2021/03/27 07:01:30;;;;;;;1.53;1.43;;;;;;;5.02;85.31;100363.13;5051745;28;20183;-71
2021/03/27 07:04:28;;;;;;;1.27;1.27;;;;;;;4.78;84.83;100357.53;5052043;28;20190;-71
2021/03/27 07:07:15;;;;;;;0.40;0.40;;;;;;;4.53;85.23;100363.00;5051093;28;20175;-71
2021/03/27 07:09:53;;;;;;;0.37;0.37;;;;;;;4.33;85.55;100372.72;5051534;28;20179;-71
2021/03/27 07:12:36;;;;;;;0.20;0.20;;;;;;;4.23;86.33;100361.13;5051592;28;20182;-71
2021/03/27 07:15:26;;;;;;;0.57;0.57;;;;;;;4.24;87.15;100368.16;5051505;28;20259;-71
2021/03/27 07:18:15;;;;;;;0.00;0.00;;;;;;;4.37;87.57;100363.00;5050940;28;20187;-71
2021/03/27 07:20:57;;;;;;;0.20;0.20;;;;;;;4.47;85.15;100364.88;5051382;28;20561;-71
2021/03/27 07:23:47;;;;;;;0.03;0.03;;;;;;;4.51;84.15;100379.50;5051438;28;20179;-71
2021/03/27 07:26:46;;;;;;;0.60;0.50;;;;;;;4.63;84.08;100371.91;5049643;28;20193;-71
2021/03/27 07:29:36;;;;;;;8.00;0.40;;;;;;;4.78;79.05;100358.34;5051133;28;20258;-71
2021/03/27 07:32:27;;;;;;;0.47;0.47;;;;;;;4.95;77.29;100371.53;5051158;28;20182;-71
2021/03/27 07:35:15;;;;;;;0.00;0.00;;;;;;;4.89;78.00;100366.41;5051135;28;20217;-71
2021/03/27 07:38:19;;;;;;;0.10;0.10;;;;;;;4.82;79.91;100374.03;5042914;28;20187;-71
2021/03/27 07:40:47;;;;;;;0.13;0.13;;;;;;;4.91;80.86;100366.94;5051200;28;20170;-71
2021/03/27 07:43:46;;;;;;;0.60;0.60;;;;;;;5.11;81.68;100366.06;5051237;28;20172;-71
2021/03/27 07:46:30;;;;;;;0.20;0.10;;;;;;;5.28;81.66;100377.38;5049989;28;20559;-72
2021/03/27 07:49:23;;;;;;;1.53;1.43;;;;;;;5.50;80.85;100374.31;5050948;28;20182;-72
2021/03/27 07:52:18;;;;;;;0.90;0.90;;;;;;;5.71;80.03;100389.34;5050906;28;20578;-72
2021/03/27 07:55:00;;;;;;;1.53;1.17;;;;;;;5.94;78.66;100372.41;5050603;28;20210;-72
2021/03/27 07:57:47;;;;;;;7.77;2.73;;;;;;;6.11;78.46;100382.88;5050180;28;20178;-76
2021/03/27 08:01:03;;;;;;;1.43;1.03;;;;;;;6.22;76.34;100376.28;5050794;28;20211;-71
2021/03/27 08:03:47;;;;;;;1.03;1.03;;;;;;;6.33;76.01;100385.13;5027394;28;20195;-71
2021/03/27 08:06:45;;;;;;;1.30;1.20;;;;;;;6.37;75.70;100382.66;5049813;28;20640;-71
2021/03/27 08:09:17;;;;;;;1.40;1.30;;;;;;;6.46;76.12;100384.47;5050847;28;20179;-72
2021/03/27 08:11:54;;;;;;;1.50;1.40;;;;;;;6.54;75.60;100383.84;5050079;28;20635;-72
2021/03/27 08:14:43;;;;;;;1.97;1.80;;;;;;;6.71;75.11;100393.47;5050444;28;20173;-71
2021/03/27 08:17:20;;;;;;;1.63;1.53;;;;;;;6.93;74.82;100406.53;5057103;28;20190;-72
2021/03/27 08:20:11;;;;;;;0.47;0.40;;;;;;;7.00;74.26;100394.25;5068863;28;20617;-71
2021/03/27 08:23:04;;;;;;;6.87;2.20;;;;;;;7.00;74.82;100413.25;5068991;28;20550;-72
2021/03/27 08:25:55;;;;;;;5.20;1.03;;;;;;;6.89;72.97;100416.34;5048941;28;20271;-72
2021/03/27 08:28:30;;;;;;;1.47;1.37;;;;;;;6.94;74.71;100410.88;5047735;28;20564;-72
2021/03/27 08:31:32;;;;;;;1.37;1.07;;;;;;;7.03;72.33;100417.28;5050424;28;20181;-72
2021/03/27 08:34:06;;;;;;;7.87;0.43;;;;;;;7.11;72.72;100413.97;5050517;28;20202;-72
2021/03/27 08:36:50;;;;;;;0.33;0.33;;;;;;;7.06;71.81;100409.38;5049683;28;20267;-72
2021/03/27 08:39:44;;;;;;;2.30;2.10;;;;;;;7.09;71.46;100400.66;5050270;28;20195;-72
2021/03/27 08:42:37;;;;;;;0.50;0.50;;;;;;;7.25;72.15;100412.16;5050711;28;20167;-72
2021/03/27 08:45:40;;;;;;;0.37;0.37;;;;;;;7.22;72.09;100423.59;5031852;28;20331;-72
2021/03/27 08:48:42;;;;;;;6.00;0.97;;;;;;;7.10;72.75;100417.78;5050077;28;20206;-72
2021/03/27 08:51:13;;;;;;;2.10;1.90;;;;;;;7.08;72.34;100428.91;5053688;28;20706;-72
2021/03/27 08:53:54;;;;;;;0.87;0.87;;;;;;;7.07;71.57;100440.06;5054547;28;20182;-72
2021/03/27 08:56:31;;;;;;;0.10;0.10;;;;;;;7.18;72.62;100432.63;5053863;28;20182;-73
2021/03/27 08:59:01;;;;;;;0.47;0.47;;;;;;;7.20;70.85;100433.13;5054173;28;20199;-73
2021/03/27 09:01:49;;;;;;;0.37;0.37;;;;;;;7.15;70.37;100439.44;5054191;28;20179;-72
2021/03/27 09:04:32;;;;;;;1.87;0.90;;;;;;;7.12;71.28;100448.19;5054222;28;20171;-73
2021/03/27 09:07:20;;;;;;;0.73;0.37;;;;;;;7.04;69.46;100452.31;5053473;28;20175;-72
2021/03/27 09:10:04;;;;;;;4.33;0.70;;;;;;;6.96;69.82;100461.09;5054123;28;20523;-72
2021/03/27 09:12:51;;;;;;;2.13;0.20;;;;;;;6.84;71.33;100468.81;5047103;28;20197;-72
2021/03/27 09:15:40;;;;;;;8.10;0.70;;;;;;;6.69;72.17;100477.91;5073915;28;20518;-72
2021/03/27 09:18:44;;;;;;;0.40;0.40;;;;;;;6.57;72.83;100477.47;5067527;28;20248;-73
2021/03/27 09:21:27;;;;;;;1.30;1.27;;;;;;;6.33;75.09;100493.66;5073433;28;20194;-73
2021/03/27 09:24:29;;;;;;;0.23;0.17;;;;;;;6.00;77.03;100497.13;5073692;28;20631;-72
2021/03/27 09:27:32;;;;;;;1.53;0.70;;;;;;;5.91;78.59;100488.75;5072194;28;20206;-72
2021/03/27 09:30:34;;;;;;;0.10;0.10;;;;;;;6.03;78.40;100491.13;5073414;28;20186;-72
2021/03/27 09:33:21;;;;;;;0.77;0.77;;;;;;;6.02;77.24;100495.75;5073600;28;20247;-72
2021/03/27 09:36:09;;;;;;;0.50;0.50;;;;;;;6.13;76.93;100500.03;5073529;28;20173;-72
2021/03/27 09:38:49;;;;;;;0.13;0.13;;;;;;;6.21;76.22;100510.25;5073197;28;20693;-72
2021/03/27 09:41:37;;;;;;;0.60;0.60;;;;;;;6.18;75.41;100520.88;5073529;28;20654;-72
2021/03/27 09:44:52;;;;;;;0.20;0.20;;;;;;;6.12;75.21;100509.25;5073419;28;20231;-72
2021/03/27 09:47:46;;;;;;;0.20;0.20;;;;;;;6.04;76.00;100522.56;5058556;28;20190;-72
2021/03/27 09:50:30;;;;;;;0.20;0.20;;;;;;;6.21;75.48;100525.72;5073428;28;20163;-72
2021/03/27 09:53:07;;;;;;;0.57;0.57;;;;;;;6.43;74.89;100539.72;5073423;28;20206;-72
2021/03/27 09:55:44;;;;;;;0.97;0.90;;;;;;;6.70;74.93;100530.31;5073419;28;20539;-72
2021/03/27 09:58:18;;;;;;;0.20;0.20;;;;;;;6.88;73.94;100540.47;5072970;28;20691;-72
2021/03/27 10:00:47;;;;;;;1.33;1.13;;;;;;;6.29;75.97;100625.53;5073213;28;20205;-73
2021/03/27 10:03:37;;;;;;;1.07;0.70;;;;;;;3.47;86.83;100621.94;5072969;28;20167;-72
2021/03/27 10:06:24;;;;;;;0.00;0.00;;;;;;;3.04;91.08;100635.63;5072820;28;20273;-72
2021/03/27 10:09:25;;;;;;;0.00;0.00;;;;;;;2.87;93.19;100660.03;5055277;28;20503;-73
2021/03/27 10:12:02;;;;;;;0.30;0.30;;;;;;;2.86;93.95;100658.41;5067234;28;20171;-72
2021/03/27 10:14:34;;;;;;;0.10;0.10;;;;;;;2.83;93.99;100673.22;5055907;28;20271;-72
2021/03/27 10:17:19;;;;;;;5.83;0.13;;;;;;;2.82;93.76;100681.56;5066626;28;20429;-72
2021/03/27 10:19:56;;;;;;;0.00;0.00;;;;;;;2.70;93.71;100684.41;5047933;28;20460;-72
2021/03/27 10:22:35;;;;;;;0.40;0.33;;;;;;;2.73;94.11;100683.88;5052405;28;20424;-72
2021/03/27 10:25:17;;;;;;;0.33;0.33;;;;;;;2.78;93.81;100675.06;5035108;28;20414;-73
2021/03/27 10:27:53;;;;;;;0.00;0.00;;;;;;;2.84;93.41;100664.03;5033463;28;20179;-73
2021/03/27 10:30:33;;;;;;;0.00;0.00;;;;;;;2.96;93.00;100650.41;5052801;28;20444;-72
2021/03/27 10:33:16;;;;;;;0.43;0.43;;;;;;;3.08;92.48;100644.84;5052607;28;20191;-72
2021/03/27 10:35:53;;;;;;;0.00;0.00;;;;;;;3.18;92.43;100664.66;5052632;28;20422;-72
2021/03/27 10:38:41;;;;;;;0.00;0.00;;;;;;;3.24;91.77;100668.19;5052074;28;20171;-72
2021/03/27 10:41:17;;;;;;;0.93;0.10;;;;;;;3.37;91.01;100672.34;5052224;28;20179;-73
2021/03/27 10:43:46;;;;;;;0.00;0.00;;;;;;;3.47;90.56;100675.97;5052558;28;20174;-73
2021/03/27 10:46:18;;;;;;;0.20;0.20;;;;;;;3.69;91.10;100672.31;5051791;28;20190;-72
2021/03/27 10:49:04;;;;;;;0.00;0.00;;;;;;;3.65;88.87;100676.63;5052493;28;20179;-73
2021/03/27 10:52:13;;;;;;;0.23;0.23;;;;;;;3.68;89.36;100671.50;5052890;28;20697;-73
2021/03/27 10:54:49;;;;;;;3.20;0.10;;;;;;;3.81;90.25;100675.66;5052401;28;20689;-73
2021/03/27 10:57:36;;;;;;;0.00;0.00;;;;;;;4.09;90.47;100677.16;5051932;28;20174;-72
2021/03/27 11:00:13;;;;;;;0.00;0.00;;;;;;;4.20;87.83;100675.34;5051930;28;20309;-73
2021/03/27 11:02:47;;;;;;;0.00;0.00;;;;;;;4.37;87.77;100687.56;5051904;28;20578;-72
2021/03/27 11:05:23;;;;;;;0.10;0.10;;;;;;;4.52;86.76;100694.13;5051537;28;20182;-72
2021/03/27 11:08:07;;;;;;;0.00;0.00;;;;;;;4.50;86.58;100691.69;5050745;28;20175;-72
2021/03/27 11:11:02;;;;;;;0.57;0.33;;;;;;;4.63;85.35;100693.91;5051615;28;20185;-72
2021/03/27 11:13:43;;;;;;;0.10;0.10;;;;;;;4.66;84.78;100687.13;5050538;28;20665;-72
2021/03/27 11:16:33;;;;;;;0.50;0.50;;;;;;;4.77;85.40;100697.72;5051334;28;20545;-72
2021/03/27 11:19:07;;;;;;;0.30;0.23;;;;;;;4.74;84.03;100700.94;5051414;28;20213;-72
2021/03/27 11:22:04;;;;;;;0.40;0.40;;;;;;;4.80;84.36;100703.69;5051566;28;20451;-72
2021/03/27 11:24:36;;;;;;;0.10;0.00;;;;;;;4.79;82.93;100711.00;5051636;28;20569;-72
2021/03/27 11:27:19;;;;;;;0.07;0.00;;;;;;;4.91;83.88;100716.16;5049657;28;20179;-71
2021/03/27 11:30:11;;;;;;;0.03;0.03;;;;;;;5.04;83.12;100715.63;5051315;28;20186;-72
2021/03/27 11:32:47;;;;;;;0.10;0.10;;;;;;;5.15;83.57;100717.28;5051212;28;20255;-72
2021/03/27 11:35:20;;;;;;;0.10;0.10;;;;;;;5.23;82.58;100734.91;5051313;28;20175;-72
2021/03/27 11:38:04;;;;;;;0.73;0.67;;;;;;;5.45;81.92;100737.38;5050816;28;20410;-72
2021/03/27 11:40:46;;;;;;;1.37;1.23;;;;;;;5.55;80.18;100738.19;5051237;28;20558;-72
2021/03/27 11:43:25;;;;;;;0.40;0.40;;;;;;;5.51;78.98;100761.50;5051326;28;20749;-72
2021/03/27 11:46:38;;;;;;;0.90;0.90;;;;;;;5.65;76.28;100730.06;5087572;27;20546;-73
2021/03/27 11:49:14;;;;;;;0.40;0.40;;;;;;;5.68;76.98;100747.69;5049625;28;20202;-73
2021/03/27 11:51:53;;;;;;;0.20;0.20;;;;;;;5.72;76.86;100761.50;5087788;28;20181;-72
2021/03/27 11:54:43;;;;;;;4.50;0.93;;;;;;;5.92;76.85;100754.19;5088088;28;20197;-72
2021/03/27 11:57:09;;;;;;;1.57;1.37;;;;;;;5.89;71.89;100746.56;5088111;28;20264;-72
2021/03/27 12:02:55;;;;;;;0.43;0.43;;;;;;;6.59;74.51;100764.91;5088201;28;20192;-72
2021/03/27 12:05:29;;;;;;;3.57;0.80;;;;;;;6.64;72.24;100751.31;5088233;28;20246;-72
2021/03/27 12:08:19;;;;;;;8.50;1.00;;;;;;;6.54;70.07;100763.84;5087365;28;20185;-72
2021/03/27 12:11:02;;;;;;;0.73;0.73;;;;;;;6.54;70.11;100760.31;5084003;28;20178;-72
2021/03/27 12:13:44;;;;;;;1.30;0.63;;;;;;;6.57;71.31;100763.28;5087951;28;20178;-72
2021/03/27 12:16:31;;;;;;;0.10;0.10;;;;;;;6.83;70.39;100764.00;5087477;28;20224;-72
2021/03/27 12:19:14;;;;;;;0.60;0.57;;;;;;;6.85;69.46;100759.09;5081195;28;20541;-72
2021/03/27 12:22:13;;;;;;;1.17;1.10;;;;;;;7.08;69.02;100754.09;5081583;28;20186;-72
2021/03/27 12:24:43;;;;;;;0.83;0.83;;;;;;;6.82;67.67;100761.56;5087928;28;20209;-73
2021/03/27 12:27:36;;;;;;;0.50;0.50;;;;;;;6.67;69.64;100769.78;5072918;28;20314;-76
2021/03/27 12:30:34;;;;;;;0.63;0.63;;;;;;;6.81;68.51;100768.09;5082137;28;20223;-73
2021/03/27 12:33:36;;;;;;;0.57;0.57;;;;;;;7.26;69.42;100769.75;5085793;28;20192;-73
2021/03/27 12:36:16;;;;;;;1.13;1.13;;;;;;;7.34;67.47;100765.63;5067352;28;20232;-73
2021/03/27 12:39:13;;;;;;;0.70;0.70;;;;;;;7.04;68.59;100780.19;5099632;28;20653;-73
2021/03/27 12:41:58;;;;;;;0.80;0.70;;;;;;;6.81;67.99;100784.38;5062368;28;20186;-73
2021/03/27 12:44:30;;;;;;;2.27;1.03;;;;;;;6.68;70.39;100804.81;5068067;28;20206;-73
2021/03/27 12:47:12;;;;;;;0.87;0.77;;;;;;;6.37;70.81;100798.63;5099726;28;20697;-73
2021/03/27 12:49:37;;;;;;;6.60;1.10;;;;;;;5.92;76.10;100857.22;5067883;28;20175;-73
2021/03/27 12:52:25;;;;;;;1.30;1.20;;;;;;;4.13;82.09;100873.75;5079454;28;20181;-73
2021/03/27 12:55:02;;;;;;;4.30;1.17;;;;;;;3.34;86.86;100888.91;5087443;28;20253;-73